Portada
METAR-TAF:

METAR-TAF

Aeroports :

Carlsbad, Califòrnia, Estats Units d'Amèrica

latitud: 33-07-48N, longitud: 117-16-33W, altitud: 100 m

Observació

L'informe es va fer fa 59 minuts, a les 13:53 UTC
Vent 3 kt del Nord/Nord-Oest
Temperatura 14°C
Humitat 88%
Pressió 1017 hPa
Visibilitat: 14.5 km
Cel cobert a una alçada de 1000 ft

METAR: KCRQ 271353Z AUTO 34003KT 9SM OVC010 14/12 A3003 RMK AO2 CIG 007V012 SLP166 T01440122

Hora: 07:52 (14:52 UTC)

Pronòstic

L'informe es va fer fa 3 hores i 32 minuts, a les 11:20 UTC
Pronòstic vàlid del 27 a les 12 UTC al 28 a les 12 UTC
Vent 3 kt amb direcció variable
Visibilitat: 10 km
Cel cobert a una alçada de 1100 ft
A partir de les 27 a les 1900 UTC
Vent 8 kt del Oest/Sud-Oest
Visibilitat: 10 km
Núvols disperses a una alçada de 1500 ft
A partir de les 28 a les 0200 UTC
Vent 4 kt amb direcció variable
Visibilitat: 10 km
Cel cobert a una alçada de 1100 ft

TAF: KCRQ 271120Z 2712/2812 VRB03KT P6SM OVC011 FM271900 25008KT P6SM SCT015 FM280200 VRB04KT P6SM OVC011

Observacions i pronòstics meteorològics de més de 4000 aeroports (METAR i TAF).

Les estacions disponibles són els punts grocs i vermells al mapa.

Posi el ratolí al punt desitjat per veure el nom de l'estació.

Feu clic per veure les observacions i els pronòstics meteorològics.

Per canviar el mapa: feu clic els botons verds amb una creu de color negre per apropar; al botó verd amb un guió per allunyar la imatge; o en les fletxes verdes per a mapes adjacents.


METAR-TAF: